AirNav   Pilot Hours Calculator
 
 753 users online  

MS26 Cedar Creek Air Ranch Airport
Lucedale, Mississippi, USA

GOING TO LUCEDALE?


FAA INFORMATION EFFECTIVE 09 SEPTEMBER 2021

Location

FAA Identifier: MS26
Lat/Long: 30-48-08.0000N 088-32-51.0000W
30-48.133333N 088-32.850000W
30.8022222,-88.5475000
(estimated)
Elevation: 165 ft. / 50 m (estimated)
From city: 7 miles SE of LUCEDALE, MS
Time zone: UTC -5 (UTC -6 during Standard Time)
Zip code: 39452

Airport Operations

Airport use: Private use. Permission required prior to landing
Activation date: 05/2005
Control tower: no
ARTCC: HOUSTON CENTER
FSS: GREENWOOD FLIGHT SERVICE STATION
Attendance: CONTINUOUS
Wind indicator: yes
Segmented circle: no
Lights: CALL 601-947-6400 TO ARRANGE TURNING ON LTS.
Beacon: white (unlighted land airport)
INOPERABLE. Operates sunset to sunrise.

Airport Communications

WX ASOS at MOB (17 nm SE): 124.75 (251-607-0469)

Nearby radio navigation aids

VOR radial/distance  VOR name  Freq  Var
SJIr290/10.7SEMMES VORTAC115.3005E
GCVr185/18.0GREENE COUNTY VORTAC115.7005E
BFMr290/27.8BROOKLEY VORTAC112.8004E
GPTr047/36.2GULFPORT VORTAC109.0002E

 
NDB name  Hdg/Dist  Freq  Var  ID
WISLE282/12.824801WMOB -- --- -...

Airport Services

Runway Information

Runway 18/36

Dimensions: 4080 x 60 ft. / 1244 x 18 m
Surface: turf
Runway edge lights: low intensity
RUNWAY 18  RUNWAY 36
Traffic pattern: leftright
Displaced threshold: 320 ft.560 ft.
Obstructions: 50 ft. trees, 580 ft. from runway50 ft. trees, 40 ft. from runway

Airport Ownership and Management from official FAA records

Ownership: Privately-owned
Owner: JOHN W. SMITH AND KENNETH MALLETTE
223 AIR RANCH ROAD
LUCEDALE, MS 39452
Phone 601-947-9240
Manager: JOHN W. SMITH
223 AIR RANCH ROAD
LUCEDALE, MS 39452
Phone (662) 213-6240
ADDL PH. 601-947-6400

Airport Operational Statistics

Aircraft based on the field: 3
Single engine airplanes: 3
    

Additional Remarks

FOR CD CTC MOBILE APCH AT 251-662-6236, WHEN APCH CLSD CTC HOUSTON ARTCC AT 281-230-5622.

Instrument Procedures

There are no published instrument procedures at MS26.

Some nearby airports with instrument procedures:

KMOB - Mobile Regional Airport (17 nm SE)
KPQL - Trent Lott International Airport (20 nm S)
2R5 - St Elmo Airport (23 nm SE)
KBFM - Mobile Downtown Airport (27 nm SE)
KBIX - Keesler Air Force Base (31 nm SW)
 
Loc | Ops | Rwys | IFR | FBO | Links
Com | Nav | Svcs | Stats | Notes
Area around MS26 (Cedar Creek Air Ranch Airport)
 
Road maps at: MapQuest Bing Google
 
Aerial photo
WARNING: Photo may not be current or correct
Aerial photo of MS26 (Cedar Creek Air Ranch Airport)
Photo taken 03-Dec-2004
from the south southeast

Do you have a better or more recent aerial photo of Cedar Creek Air Ranch Airport that you would like to share? If so, please send us your photo.

 
Sectional chart

 
Airport distance calculator
Flying to Cedar Creek Air Ranch Airport? Find the distance to fly.

From to MS26

Sunrise and sunset
Times for 18-Sep-2021
 Local
(UTC-5)
 Zulu
(UTC)
Morning civil twilight06:1711:17
Sunrise06:4111:41
Sunset18:5623:56
Evening civil twilight19:2000:20

Current date and time
Zulu (UTC)  19-Sep-2021 03:29:50
Local (UTC-5)  18-Sep-2021 22:29:50
 
METAR
KMOB 
17nm SE 
190256Z 08005KT 10SM SCT015 SCT028 BKN100 24/23 A3003 RMK AO2 SLP166 T02390233 53012
KPQL 
20nm S 
190253Z AUTO 00000KT 10SM CLR 26/24 A3001 RMK AO2 SLP164 T02560244 53012 TSNO
KBFM 
27nm SE 
190321Z AUTO 09009KT 10SM FEW009 OVC016 26/24 A3003 RMK AO2 T02610244
KBIX 
30nm SW 
190256Z AUTO 13005KT 10SM SCT120 26/24 A2999 RMK AO2 SLP158 T02560236 52010
TAF
KMOB 
17nm SE 
190145Z 1902/1924 03008KT P6SM VCSH FEW008 BKN015 BKN250 FM190600 VRB03KT P6SM SCT012 OVC020 FM190900 00000KT P6SM VCSH SCT010 OVC015 FM191800 14005KT 6SM -SHRA SCT020 BKN023 PROB30 1918/1924 4SM TSRA BKN020CB
NOTAMs
Click for the latest NOTAMs
NOTAMs are issued by the DoD/FAA and will open in a separate window not controlled by AirNav.

 

 
 

Would you like to see your business listed on this page?

 If your business provides an interesting product or service to pilots, flight crews, aircraft, or users of the Cedar Creek Air Ranch Airport, you should consider listing it here.  To start the listing process, click on the button below
 
Add a business
 

Other Pages about Cedar Creek Air Ranch Airport

Update a link
 
Copyright © AirNav, LLC. All rights reserved. Privacy Policy  Contact